createdAt,value
2022-11-27T00:00:05.263Z,5.80
2022-11-27T00:02:36.422Z,5.80
2022-11-27T00:05:07.024Z,5.70
2022-11-27T00:07:34.217Z,5.70
2022-11-27T00:10:01.557Z,5.60
2022-11-27T00:12:28.876Z,5.60
2022-11-27T00:14:55.983Z,5.60
2022-11-27T00:17:23.176Z,5.60
2022-11-27T00:19:50.260Z,5.50
2022-11-27T00:22:17.657Z,5.50
2022-11-27T00:24:44.993Z,5.50
2022-11-27T00:27:12.293Z,5.50
2022-11-27T00:29:39.739Z,5.50
2022-11-27T00:32:08.305Z,5.60
2022-11-27T00:34:35.555Z,5.60
2022-11-27T00:37:04.041Z,5.60
2022-11-27T00:39:31.239Z,5.70
2022-11-27T00:41:58.358Z,5.80
2022-11-27T00:44:25.615Z,5.80
2022-11-27T00:46:52.848Z,5.90
2022-11-27T00:49:20.098Z,6.00
2022-11-27T00:51:48.369Z,6.00
2022-11-27T00:54:15.524Z,6.10
2022-11-27T00:56:42.627Z,6.20
2022-11-27T00:59:10.758Z,6.30
2022-11-27T01:01:42.207Z,6.30
2022-11-27T01:04:13.038Z,6.40
2022-11-27T01:06:41.206Z,6.40
2022-11-27T01:09:09.784Z,6.30
2022-11-27T01:11:37.041Z,6.30
2022-11-27T01:14:08.602Z,6.30
2022-11-27T01:16:38.637Z,6.20
2022-11-27T01:19:10.848Z,6.20
2022-11-27T01:21:37.952Z,6.20
2022-11-27T01:24:06.004Z,6.10
2022-11-27T01:26:33.263Z,6.20
2022-11-27T01:29:00.718Z,6.10
2022-11-27T01:31:31.104Z,6.20
2022-11-27T01:34:01.400Z,6.10
2022-11-27T01:36:29.673Z,6.20
2022-11-27T01:38:57.118Z,6.20
2022-11-27T01:41:33.090Z,6.20
2022-11-27T01:44:21.916Z,6.20
2022-11-27T01:46:50.736Z,6.20
2022-11-27T01:49:38.460Z,6.20
2022-11-27T01:52:08.081Z,6.20
2022-11-27T01:54:40.189Z,6.10
2022-11-27T01:57:15.882Z,6.10
2022-11-27T01:59:44.282Z,6.10
2022-11-27T02:02:11.526Z,6.10
2022-11-27T02:04:39.006Z,6.10
2022-11-27T02:07:06.495Z,6.00
2022-11-27T02:09:34.005Z,6.00
2022-11-27T02:12:11.164Z,6.00
2022-11-27T02:14:56.999Z,6.00
2022-11-27T02:17:34.719Z,5.90
2022-11-27T02:20:19.922Z,5.90
2022-11-27T02:23:18.478Z,5.90
2022-11-27T02:26:00.489Z,5.90
2022-11-27T02:28:56.057Z,5.80
2022-11-27T02:31:54.578Z,5.80
2022-11-27T02:34:31.880Z,5.80
2022-11-27T02:37:36.289Z,5.80
2022-11-27T02:40:22.265Z,5.80
2022-11-27T02:43:10.328Z,5.70
2022-11-27T02:45:42.019Z,5.70
2022-11-27T02:48:10.276Z,5.70
2022-11-27T02:50:39.931Z,5.70
2022-11-27T02:53:14.292Z,5.80
2022-11-27T02:55:43.136Z,5.70
2022-11-27T02:58:15.184Z,5.80
2022-11-27T03:00:44.930Z,5.70
2022-11-27T03:03:14.965Z,5.70
2022-11-27T03:05:45.568Z,5.70
2022-11-27T03:08:28.114Z,5.70
2022-11-27T03:11:09.405Z,5.70
2022-11-27T03:13:42.846Z,5.60
2022-11-27T03:16:25.245Z,5.60
2022-11-27T03:18:59.270Z,5.60
2022-11-27T03:21:39.567Z,5.50
2022-11-27T03:24:11.179Z,5.50
2022-11-27T03:26:39.853Z,5.40
2022-11-27T03:29:13.157Z,5.30
2022-11-27T03:31:41.096Z,5.30
2022-11-27T03:34:08.823Z,5.20
2022-11-27T03:36:36.236Z,5.20
2022-11-27T03:39:04.625Z,5.20
2022-11-27T03:41:45.216Z,5.10
2022-11-27T03:44:36.006Z,5.10
2022-11-27T03:47:40.557Z,5.10
2022-11-27T03:50:32.591Z,5.00
2022-11-27T03:53:05.441Z,5.00
2022-11-27T03:55:57.629Z,5.00
2022-11-27T03:58:27.837Z,4.90
2022-11-27T04:00:56.315Z,4.90
2022-11-27T04:03:27.266Z,4.90
2022-11-27T04:05:55.428Z,4.90
2022-11-27T04:08:22.978Z,4.90
2022-11-27T04:10:50.210Z,4.90
2022-11-27T04:13:18.632Z,4.90
2022-11-27T04:15:45.773Z,4.80
2022-11-27T04:18:13.038Z,4.80
2022-11-27T04:20:40.182Z,4.80
2022-11-27T04:23:07.424Z,4.80
2022-11-27T04:25:34.550Z,4.80
2022-11-27T04:28:01.773Z,4.80
2022-11-27T04:30:29.024Z,4.80
2022-11-27T04:32:56.140Z,4.80
2022-11-27T04:35:23.669Z,4.70
2022-11-27T04:37:50.761Z,4.70
2022-11-27T04:40:18.139Z,4.80
2022-11-27T04:42:45.267Z,4.80
2022-11-27T04:45:12.469Z,4.80
2022-11-27T04:47:39.586Z,4.80
2022-11-27T04:50:07.366Z,4.80
2022-11-27T04:52:34.665Z,4.80
2022-11-27T04:55:03.588Z,4.80
2022-11-27T04:57:31.000Z,4.80
2022-11-27T04:59:58.083Z,4.80
2022-11-27T05:02:25.237Z,4.80
2022-11-27T05:04:52.467Z,4.80
2022-11-27T05:07:20.579Z,4.70
2022-11-27T05:09:47.941Z,4.70
2022-11-27T05:12:15.141Z,4.70
2022-11-27T05:14:42.507Z,4.70
2022-11-27T05:17:10.321Z,4.70
2022-11-27T05:19:37.614Z,4.70
2022-11-27T05:22:04.831Z,4.60
2022-11-27T05:24:33.095Z,4.60
2022-11-27T05:27:00.296Z,4.60
2022-11-27T05:29:27.598Z,4.60
2022-11-27T05:31:54.818Z,4.60
2022-11-27T05:34:22.255Z,4.50
2022-11-27T05:36:49.504Z,4.50
2022-11-27T05:39:17.191Z,4.50
2022-11-27T05:41:44.465Z,4.50
2022-11-27T05:44:13.967Z,4.50
2022-11-27T05:46:43.656Z,4.50
2022-11-27T05:49:13.312Z,4.40
2022-11-27T05:51:44.128Z,4.50
2022-11-27T05:54:14.912Z,4.40
2022-11-27T05:56:42.137Z,4.50
2022-11-27T05:59:10.967Z,4.40
2022-11-27T06:01:38.336Z,4.40
2022-11-27T06:04:05.674Z,4.40
2022-11-27T06:06:32.775Z,4.40
2022-11-27T06:09:00.773Z,4.50
2022-11-27T06:11:28.258Z,4.40
2022-11-27T06:13:55.599Z,4.50
2022-11-27T06:16:24.323Z,4.40
2022-11-27T06:18:53.747Z,4.50
2022-11-27T06:21:22.198Z,4.50
2022-11-27T06:23:53.083Z,4.50
2022-11-27T06:26:26.211Z,4.50
2022-11-27T06:28:54.691Z,4.50
2022-11-27T06:31:25.792Z,4.50
2022-11-27T06:33:54.369Z,4.50
2022-11-27T06:36:23.920Z,4.50
2022-11-27T06:38:51.382Z,4.50
2022-11-27T06:41:21.738Z,4.50
2022-11-27T06:43:48.964Z,4.60
2022-11-27T06:46:19.308Z,4.60
2022-11-27T06:48:47.947Z,4.60
2022-11-27T06:51:17.744Z,4.60
2022-11-27T06:53:45.026Z,4.60
2022-11-27T06:56:15.368Z,4.60
2022-11-27T06:58:43.031Z,4.60
2022-11-27T07:01:15.747Z,4.70
2022-11-27T07:03:43.077Z,4.70
2022-11-27T07:06:13.713Z,4.80
2022-11-27T07:08:41.266Z,4.80
2022-11-27T07:11:13.491Z,4.80
2022-11-27T07:13:42.265Z,4.80
2022-11-27T07:16:11.257Z,4.90
2022-11-27T07:18:45.235Z,4.90
2022-11-27T07:21:12.934Z,4.90
2022-11-27T07:23:40.258Z,4.90
2022-11-27T07:26:09.540Z,4.90
2022-11-27T07:28:37.185Z,4.90
2022-11-27T07:31:04.767Z,5.00
2022-11-27T07:33:32.741Z,5.00
2022-11-27T07:36:20.161Z,5.00
2022-11-27T07:38:49.260Z,5.10
2022-11-27T07:41:16.815Z,5.10
2022-11-27T07:43:44.887Z,5.20
2022-11-27T07:46:23.716Z,5.30
2022-11-27T07:48:51.441Z,5.30
2022-11-27T07:51:20.927Z,5.40
2022-11-27T07:53:51.861Z,5.40
2022-11-27T07:56:19.414Z,5.50
2022-11-27T07:58:47.139Z,5.50
2022-11-27T08:01:17.287Z,5.60
2022-11-27T08:03:44.626Z,5.70
2022-11-27T08:06:23.712Z,5.70
2022-11-27T08:08:51.947Z,5.80
2022-11-27T08:11:29.752Z,5.80
2022-11-27T08:14:02.181Z,5.80
2022-11-27T08:16:30.191Z,5.90
2022-11-27T08:18:57.737Z,5.90
2022-11-27T08:21:25.200Z,6.00
2022-11-27T08:23:52.390Z,6.00
2022-11-27T08:26:20.983Z,6.10
2022-11-27T08:28:48.413Z,6.10
2022-11-27T08:31:15.778Z,6.20
2022-11-27T08:33:43.261Z,6.20
2022-11-27T08:36:16.354Z,6.20
2022-11-27T08:38:46.163Z,6.30
2022-11-27T08:41:13.404Z,6.40
2022-11-27T08:43:40.615Z,6.40
2022-11-27T08:46:08.069Z,6.50
2022-11-27T08:48:35.999Z,6.50
2022-11-27T08:51:11.709Z,6.60
2022-11-27T08:53:39.555Z,6.60
2022-11-27T08:56:08.999Z,6.70
2022-11-27T08:58:36.428Z,6.70
2022-11-27T09:01:12.757Z,6.80
2022-11-27T09:03:40.128Z,6.90
2022-11-27T09:06:13.243Z,6.90
2022-11-27T09:08:41.987Z,7.00
2022-11-27T09:11:10.094Z,7.10
2022-11-27T09:13:37.796Z,7.20
2022-11-27T09:16:06.442Z,7.20
2022-11-27T09:18:34.159Z,7.30
2022-11-27T09:21:05.242Z,7.30
2022-11-27T09:23:32.551Z,7.40
2022-11-27T09:26:11.167Z,7.50
2022-11-27T09:28:43.773Z,7.60
2022-11-27T09:31:13.968Z,7.60
2022-11-27T09:33:48.076Z,7.60
2022-11-27T09:36:21.343Z,7.70
2022-11-27T09:38:49.140Z,8.00
2022-11-27T09:41:20.538Z,8.50
2022-11-27T09:43:59.597Z,8.80
2022-11-27T09:46:31.998Z,9.00
2022-11-27T09:49:02.452Z,9.20
2022-11-27T09:51:55.149Z,9.30
2022-11-27T09:54:37.627Z,9.50
2022-11-27T09:57:06.338Z,9.90
2022-11-27T09:59:44.893Z,10.10
2022-11-27T10:02:26.634Z,10.10
2022-11-27T10:07:54.008Z,10.10
2022-11-27T10:10:34.229Z,10.00
2022-11-27T10:13:29.921Z,9.90
2022-11-27T10:16:05.677Z,9.80
2022-11-27T10:18:40.397Z,9.60
2022-11-27T10:21:45.120Z,9.50
2022-11-27T10:24:37.679Z,9.50
2022-11-27T10:27:17.856Z,9.60
2022-11-27T10:29:52.947Z,9.70
2022-11-27T10:32:53.581Z,9.70
2022-11-27T10:35:17.825Z,9.80
2022-11-27T10:37:58.144Z,9.80
2022-11-27T10:40:45.982Z,9.80
2022-11-27T10:43:20.247Z,9.90
2022-11-27T10:45:59.528Z,10.00
2022-11-27T10:48:28.540Z,10.00
2022-11-27T10:50:56.331Z,10.10
2022-11-27T10:53:34.806Z,10.10
2022-11-27T10:56:04.685Z,10.20
2022-11-27T10:58:40.854Z,10.20
2022-11-27T11:01:14.294Z,10.20
2022-11-27T11:03:41.561Z,10.30
2022-11-27T11:06:22.000Z,10.30
2022-11-27T11:09:03.894Z,10.30
2022-11-27T11:11:31.442Z,10.40
2022-11-27T11:13:58.664Z,10.50
2022-11-27T11:16:34.849Z,10.50
2022-11-27T11:19:04.023Z,10.60
2022-11-27T11:21:42.647Z,10.70
2022-11-27T11:24:28.759Z,10.80
2022-11-27T11:26:59.436Z,11.00
2022-11-27T11:29:38.910Z,11.20
2022-11-27T11:32:13.436Z,11.30
2022-11-27T11:34:47.137Z,11.40
2022-11-27T11:37:30.247Z,11.50
2022-11-27T11:39:57.340Z,11.50
2022-11-27T11:42:31.320Z,11.70
2022-11-27T11:45:19.181Z,11.90
2022-11-27T11:47:50.889Z,12.30
2022-11-27T11:50:34.409Z,12.70
2022-11-27T11:53:16.686Z,12.70
2022-11-27T11:55:48.929Z,12.80
2022-11-27T11:58:24.197Z,12.90
2022-11-27T12:01:25.795Z,13.00
2022-11-27T12:04:08.692Z,13.00
2022-11-27T12:06:47.936Z,13.10
2022-11-27T12:09:31.755Z,13.10
2022-11-27T12:12:30.300Z,13.30
2022-11-27T12:15:05.173Z,13.40
2022-11-27T12:17:41.364Z,13.40
2022-11-27T12:20:17.540Z,13.30
2022-11-27T12:23:31.353Z,13.10
2022-11-27T12:26:24.370Z,13.10
2022-11-27T12:29:04.743Z,13.00
2022-11-27T12:31:45.315Z,13.00
2022-11-27T12:34:24.063Z,13.00
2022-11-27T12:37:03.236Z,12.90
2022-11-27T12:39:43.502Z,12.90
2022-11-27T12:42:30.027Z,12.80
2022-11-27T12:45:04.411Z,12.60
2022-11-27T12:47:40.721Z,12.40
2022-11-27T12:50:34.126Z,12.30
2022-11-27T12:53:24.522Z,12.20
2022-11-27T12:56:15.005Z,12.10
2022-11-27T12:58:51.190Z,12.00
2022-11-27T13:01:29.241Z,12.00
2022-11-27T13:04:17.429Z,12.10
2022-11-27T13:07:21.728Z,12.10
2022-11-27T13:10:00.979Z,12.10
2022-11-27T13:12:49.861Z,12.20
2022-11-27T13:15:24.156Z,12.30
2022-11-27T13:17:58.623Z,12.30
2022-11-27T13:20:33.994Z,12.30
2022-11-27T13:23:01.374Z,12.20
2022-11-27T13:25:31.211Z,12.10
2022-11-27T13:27:59.540Z,12.10
2022-11-27T13:30:32.501Z,12.00
2022-11-27T13:33:06.440Z,11.90
2022-11-27T13:35:42.696Z,11.90
2022-11-27T13:38:14.889Z,11.90
2022-11-27T13:40:45.600Z,11.90
2022-11-27T13:43:41.487Z,11.90
2022-11-27T13:46:25.730Z,11.90
2022-11-27T13:48:57.744Z,12.00
2022-11-27T13:51:31.398Z,12.00
2022-11-27T13:54:13.226Z,12.00
2022-11-27T13:56:40.689Z,12.00
2022-11-27T13:59:23.010Z,11.90
2022-11-27T14:01:54.523Z,11.90
2022-11-27T14:04:21.731Z,11.90
2022-11-27T14:07:04.695Z,11.80
2022-11-27T14:09:38.738Z,11.70
2022-11-27T14:12:22.656Z,11.60
2022-11-27T14:15:10.555Z,11.50
2022-11-27T14:17:46.404Z,11.50
2022-11-27T14:20:17.181Z,11.40
2022-11-27T14:23:13.168Z,11.30
2022-11-27T14:25:41.555Z,11.20
2022-11-27T14:28:16.879Z,11.20
2022-11-27T14:30:48.641Z,11.20
2022-11-27T14:33:19.570Z,11.10
2022-11-27T14:35:56.310Z,11.10
2022-11-27T14:38:25.312Z,11.00
2022-11-27T14:40:54.337Z,10.90
2022-11-27T14:43:25.442Z,10.90
2022-11-27T14:45:57.901Z,10.90
2022-11-27T14:48:27.277Z,10.80
2022-11-27T14:50:56.151Z,10.80
2022-11-27T14:53:26.583Z,10.70
2022-11-27T14:55:57.048Z,10.70
2022-11-27T14:58:27.551Z,10.60
2022-11-27T15:01:07.970Z,10.50
2022-11-27T15:03:35.615Z,10.50
2022-11-27T15:06:12.349Z,10.30
2022-11-27T15:08:39.940Z,10.20
2022-11-27T15:11:29.989Z,10.10
2022-11-27T15:14:03.352Z,10.00
2022-11-27T15:16:32.179Z,9.90
2022-11-27T15:19:04.257Z,9.80
2022-11-27T15:21:36.872Z,9.70
2022-11-27T15:24:04.379Z,9.50
2022-11-27T15:26:40.018Z,9.40
2022-11-27T15:29:46.220Z,9.30
2022-11-27T15:32:58.640Z,9.10
2022-11-27T15:35:32.615Z,9.00
2022-11-27T15:38:08.376Z,9.00
2022-11-27T15:40:38.235Z,9.00
2022-11-27T15:43:15.837Z,8.90
2022-11-27T15:45:44.419Z,8.90
2022-11-27T15:48:16.015Z,8.90
2022-11-27T15:50:48.401Z,8.80
2022-11-27T15:53:18.997Z,8.70
2022-11-27T15:55:49.201Z,8.70
2022-11-27T15:58:16.274Z,8.60
2022-11-27T16:00:43.865Z,8.60
2022-11-27T16:03:11.222Z,8.50
2022-11-27T16:05:38.276Z,8.50
2022-11-27T16:08:05.955Z,8.40
2022-11-27T16:10:39.951Z,8.40
2022-11-27T16:13:10.180Z,8.30
2022-11-27T16:15:37.396Z,8.30
2022-11-27T16:18:04.784Z,8.20
2022-11-27T16:20:32.119Z,8.10
2022-11-27T16:23:02.565Z,8.00
2022-11-27T16:25:29.712Z,7.90
2022-11-27T16:28:02.237Z,7.80
2022-11-27T16:30:30.649Z,7.80
2022-11-27T16:32:59.242Z,7.70
2022-11-27T16:35:26.487Z,7.70
2022-11-27T16:37:53.570Z,7.60
2022-11-27T16:40:22.336Z,7.60
2022-11-27T16:42:50.252Z,7.50
2022-11-27T16:45:20.482Z,7.50
2022-11-27T16:47:50.542Z,7.40
2022-11-27T16:50:17.686Z,7.30
2022-11-27T16:52:44.868Z,7.30
2022-11-27T16:55:13.055Z,7.20
2022-11-27T16:57:40.264Z,7.20
2022-11-27T17:00:08.051Z,7.10
2022-11-27T17:02:35.371Z,7.10
2022-11-27T17:05:04.207Z,7.10
2022-11-27T17:07:31.413Z,7.10
2022-11-27T17:09:58.583Z,7.00
2022-11-27T17:12:25.862Z,7.00
2022-11-27T17:14:54.234Z,6.90
2022-11-27T17:17:21.526Z,6.90
2022-11-27T17:19:49.286Z,6.80
2022-11-27T17:22:16.590Z,6.80
2022-11-27T17:24:43.740Z,6.90
2022-11-27T17:27:10.993Z,6.80
2022-11-27T17:29:38.196Z,6.80
2022-11-27T17:32:08.630Z,6.80
2022-11-27T17:34:35.812Z,6.80
2022-11-27T17:37:03.074Z,6.80
2022-11-27T17:39:30.404Z,6.80
2022-11-27T17:41:57.675Z,6.80
2022-11-27T17:44:24.775Z,6.80
2022-11-27T17:46:51.801Z,6.90
2022-11-27T17:49:19.723Z,6.80
2022-11-27T17:51:46.967Z,6.90
2022-11-27T17:54:14.202Z,6.90
2022-11-27T17:56:41.402Z,7.00
2022-11-27T17:59:08.588Z,7.00
2022-11-27T18:01:35.976Z,6.90
2022-11-27T18:04:04.389Z,7.00
2022-11-27T18:06:33.279Z,6.90
2022-11-27T18:09:00.710Z,6.90
2022-11-27T18:11:31.022Z,6.80
2022-11-27T18:13:58.331Z,6.90
2022-11-27T18:16:29.310Z,6.90
2022-11-27T18:19:02.137Z,7.00
2022-11-27T18:21:29.550Z,7.00
2022-11-27T18:24:22.677Z,7.00
2022-11-27T18:29:34.292Z,7.00
2022-11-27T18:32:01.780Z,6.90
2022-11-27T18:34:29.811Z,7.00
2022-11-27T18:36:59.588Z,7.00
2022-11-27T18:39:27.915Z,7.00
2022-11-27T18:41:55.081Z,7.00
2022-11-27T18:44:22.196Z,7.00
2022-11-27T18:46:49.652Z,7.10
2022-11-27T18:49:16.902Z,7.10
2022-11-27T18:51:45.086Z,7.10
2022-11-27T18:54:12.332Z,7.10
2022-11-27T18:56:41.091Z,7.10
2022-11-27T18:59:08.427Z,7.10
2022-11-27T19:01:41.794Z,7.10
2022-11-27T19:04:11.504Z,7.10
2022-11-27T19:06:39.486Z,7.10
2022-11-27T19:09:09.211Z,7.10
2022-11-27T19:11:36.574Z,7.10
2022-11-27T19:14:05.071Z,7.10
2022-11-27T19:16:46.270Z,7.10
2022-11-27T19:22:07.960Z,7.10
2022-11-27T19:24:36.010Z,7.10
2022-11-27T19:27:03.614Z,7.10
2022-11-27T19:29:31.322Z,7.10
2022-11-27T19:32:01.080Z,7.10
2022-11-27T19:34:28.945Z,7.10
2022-11-27T19:36:58.425Z,7.10
2022-11-27T19:39:27.275Z,7.00
2022-11-27T19:41:56.033Z,7.00
2022-11-27T19:44:23.491Z,7.00
2022-11-27T19:46:50.800Z,7.00
2022-11-27T19:49:19.286Z,7.10
2022-11-27T19:51:46.968Z,7.10
2022-11-27T19:54:15.673Z,7.10
2022-11-27T19:56:43.248Z,7.10
2022-11-27T19:59:14.470Z,7.10
2022-11-27T20:01:42.517Z,7.10
2022-11-27T20:04:11.919Z,7.10
2022-11-27T20:06:39.906Z,7.10
2022-11-27T20:09:07.915Z,7.10
2022-11-27T20:11:38.340Z,7.10
2022-11-27T20:14:06.594Z,7.10
2022-11-27T20:16:35.458Z,7.10
2022-11-27T20:19:06.438Z,7.10
2022-11-27T20:21:34.172Z,7.10
2022-11-27T20:24:02.188Z,7.00
2022-11-27T20:26:30.863Z,7.10
2022-11-27T20:28:58.820Z,7.10
2022-11-27T20:31:29.622Z,7.10
2022-11-27T20:34:00.820Z,7.10
2022-11-27T20:36:32.159Z,7.10
2022-11-27T20:39:01.149Z,7.10
2022-11-27T20:41:28.812Z,7.10
2022-11-27T20:44:01.502Z,7.10
2022-11-27T20:46:28.892Z,7.10
2022-11-27T20:48:56.726Z,7.10
2022-11-27T20:51:28.803Z,7.00
2022-11-27T20:53:58.393Z,7.00
2022-11-27T20:56:26.352Z,7.00
2022-11-27T20:58:54.128Z,7.00
2022-11-27T21:01:30.401Z,7.00
2022-11-27T21:03:59.166Z,6.90
2022-11-27T21:06:29.575Z,6.90
2022-11-27T21:09:04.194Z,6.90
2022-11-27T21:11:32.732Z,6.80
2022-11-27T21:14:06.214Z,6.70
2022-11-27T21:16:35.884Z,6.70
2022-11-27T21:19:08.813Z,6.70
2022-11-27T21:21:36.122Z,6.60
2022-11-27T21:24:03.782Z,6.60
2022-11-27T21:26:31.068Z,6.60
2022-11-27T21:28:58.429Z,6.60
2022-11-27T21:31:27.296Z,6.70
2022-11-27T21:33:56.577Z,6.70
2022-11-27T21:36:26.602Z,6.70
2022-11-27T21:38:54.510Z,6.70
2022-11-27T21:41:21.753Z,6.70
2022-11-27T21:43:53.656Z,6.70
2022-11-27T21:46:24.727Z,6.70
2022-11-27T21:48:53.487Z,6.70
2022-11-27T21:51:21.628Z,6.70
2022-11-27T21:53:53.514Z,6.70
2022-11-27T21:56:22.801Z,6.70
2022-11-27T21:58:50.239Z,6.70
2022-11-27T22:01:22.190Z,6.80
2022-11-27T22:03:54.758Z,6.80
2022-11-27T22:06:24.870Z,6.70
2022-11-27T22:08:54.077Z,6.80
2022-11-27T22:11:24.734Z,6.70
2022-11-27T22:13:53.870Z,6.70
2022-11-27T22:16:24.666Z,6.70
2022-11-27T22:18:54.564Z,6.70
2022-11-27T22:21:22.387Z,6.70
2022-11-27T22:23:49.902Z,6.80
2022-11-27T22:26:19.219Z,6.80
2022-11-27T22:28:46.977Z,6.70
2022-11-27T22:31:23.061Z,6.70
2022-11-27T22:33:50.600Z,6.70
2022-11-27T22:36:25.294Z,6.70
2022-11-27T22:38:55.519Z,6.80
2022-11-27T22:41:26.070Z,6.80
2022-11-27T22:43:53.444Z,6.80
2022-11-27T22:46:25.300Z,6.80
2022-11-27T22:48:54.875Z,6.80
2022-11-27T22:51:25.431Z,6.80
2022-11-27T22:53:53.063Z,6.70
2022-11-27T22:56:20.555Z,6.70
2022-11-27T22:58:48.123Z,6.70
2022-11-27T23:01:20.488Z,6.70
2022-11-27T23:03:47.676Z,6.80
2022-11-27T23:06:16.710Z,6.80
2022-11-27T23:08:45.652Z,6.70
2022-11-27T23:11:19.515Z,6.80
2022-11-27T23:13:49.842Z,6.80
2022-11-27T23:16:18.502Z,6.70
2022-11-27T23:18:46.460Z,6.70
2022-11-27T23:21:20.308Z,6.70
2022-11-27T23:23:48.544Z,6.60
2022-11-27T23:26:21.671Z,6.60
2022-11-27T23:28:51.270Z,6.60
2022-11-27T23:31:30.831Z,6.50
2022-11-27T23:34:03.405Z,6.50
2022-11-27T23:36:33.201Z,6.40
2022-11-27T23:39:03.866Z,6.40
2022-11-27T23:41:34.214Z,6.30
2022-11-27T23:44:02.076Z,6.30
2022-11-27T23:46:30.256Z,6.30
2022-11-27T23:48:59.905Z,6.30
2022-11-27T23:51:30.962Z,6.20
2022-11-27T23:53:59.686Z,6.30
2022-11-27T23:56:30.824Z,6.30
2022-11-27T23:58:58.880Z,6.30
